Time;durP1;ratioP1;P1;durP2;ratioP2;P2;SDS_P1;SDS_P2;PMS_P1;PMS_P2;Temp;Humidity;BMP_temperature;BMP_pressure;BME280_temperature;BME280_humidity;BME280_pressure;Samples;Min_cycle;Max_cycle;Signal;HPM_P1;HPM_P2
2022/07/18 00:01:41;;;;;;;;;6.25;6.25;;;;;24.92;45.27;101800.75;4931658;28;44852;-90
2022/07/18 00:04:07;;;;;;;;;6.75;6.75;;;;;24.82;44.44;101796.34;4932202;28;45022;-90
2022/07/18 00:06:32;;;;;;;;;6.00;6.00;;;;;24.80;44.94;101803.84;4929344;28;44742;-89
2022/07/18 00:08:58;;;;;;;;;3.00;3.00;;;;;24.77;45.77;101804.16;4930068;28;44815;-90
2022/07/18 00:11:23;;;;;;;;;7.00;6.00;;;;;24.71;45.99;101799.41;4913752;28;44952;-90
2022/07/18 00:13:51;;;;;;;;;0.50;0.25;;;;;24.66;45.68;101804.50;4931481;28;45296;-90
2022/07/18 00:16:16;;;;;;;;;5.60;5.60;;;;;24.62;45.58;101792.28;4929196;28;44764;-90
2022/07/18 00:18:42;;;;;;;;;4.50;4.50;;;;;24.59;45.79;101789.88;4933595;28;44905;-89
2022/07/18 00:21:08;;;;;;;;;7.25;5.75;;;;;24.54;45.73;101784.09;4939168;28;44850;-88
2022/07/18 00:23:33;;;;;;;;;7.75;3.75;;;;;24.51;45.74;101784.44;4939709;28;45195;-89
2022/07/18 00:25:59;;;;;;;;;5.25;4.00;;;;;24.48;46.16;101784.78;4933734;28;45307;-91
2022/07/18 00:28:24;;;;;;;;;7.00;6.25;;;;;24.45;46.18;101787.81;4925279;28;44902;-90
2022/07/18 00:30:50;;;;;;;;;8.25;4.50;;;;;24.44;46.80;101786.97;4926437;28;44910;-89
2022/07/18 00:33:15;;;;;;;;;2.75;2.75;;;;;24.43;45.95;101796.16;4929352;28;46755;-89
2022/07/18 00:35:41;;;;;;;;;5.00;3.00;;;;;24.41;46.03;101791.88;4927546;28;44789;-90
2022/07/18 00:38:06;;;;;;;;;5.00;5.00;;;;;24.37;46.55;101777.81;4929844;28;44702;-90
2022/07/18 00:40:33;;;;;;;;;6.00;4.75;;;;;24.36;46.25;101784.25;4929196;28;44847;-89
2022/07/18 00:42:58;;;;;;;;;6.00;6.00;;;;;24.33;46.78;101793.56;4927743;28;45153;-89
2022/07/18 00:45:25;;;;;;;;;4.00;4.00;;;;;24.30;47.35;101795.75;4929899;28;44672;-89
2022/07/18 00:47:51;;;;;;;;;6.20;4.80;;;;;24.24;47.62;101789.13;4927738;28;44839;-90
2022/07/18 00:50:18;;;;;;;;;11.75;11.75;;;;;24.24;47.82;101791.00;4926467;28;44897;-90
2022/07/18 00:52:44;;;;;;;;;14.20;12.00;;;;;24.20;47.81;101782.31;4930699;28;45289;-90
2022/07/18 00:55:09;;;;;;;;;9.00;7.00;;;;;24.15;47.94;101779.25;4932702;28;44867;-89
2022/07/18 00:57:36;;;;;;;;;7.00;5.50;;;;;24.13;48.48;101781.31;4931360;28;44668;-89
2022/07/18 01:03:02;;;;;;;;;7.80;6.60;;;;;24.05;49.09;101771.25;4937452;28;45147;-89
2022/07/18 01:05:28;;;;;;;;;6.20;3.80;;;;;24.02;49.47;101776.16;4930251;28;44736;-89
2022/07/18 01:07:54;;;;;;;;;6.50;3.50;;;;;23.98;47.72;101780.22;4931167;28;44802;-90
2022/07/18 01:10:19;;;;;;;;;5.00;4.00;;;;;24.01;46.19;101788.88;4932698;28;44733;-90
2022/07/18 01:12:45;;;;;;;;;4.00;3.00;;;;;24.08;46.20;101778.25;4928630;28;45223;-88
2022/07/18 01:15:12;;;;;;;;;7.80;6.00;;;;;24.09;47.00;101777.22;4930464;28;44803;-90
2022/07/18 01:17:37;;;;;;;;;5.00;3.60;;;;;24.09;48.14;101774.50;4931261;28;45212;-89
2022/07/18 01:20:04;;;;;;;;;4.75;4.75;;;;;24.07;48.19;101771.09;4926190;28;44956;-90
2022/07/18 01:22:30;;;;;;;;;3.60;3.60;;;;;24.05;49.34;101767.69;4929846;28;45051;-90
2022/07/18 01:24:55;;;;;;;;;4.25;4.25;;;;;24.00;50.50;101770.91;4930010;28;44814;-90
2022/07/18 01:27:22;;;;;;;;;4.75;4.75;;;;;23.98;50.41;101767.53;4931821;28;44686;-89
2022/07/18 01:29:50;;;;;;;;;5.75;5.75;;;;;23.97;51.94;101776.66;4930585;28;44925;-88
2022/07/18 01:32:17;;;;;;;;;3.00;3.00;;;;;23.92;50.72;101770.88;4933607;28;45176;-88
2022/07/18 01:34:44;;;;;;;;;5.80;4.20;;;;;23.91;50.23;101771.88;4941409;28;44674;-89
2022/07/18 01:37:10;;;;;;;;;5.40;4.20;;;;;23.87;53.16;101767.81;4940051;28;44940;-90
2022/07/18 01:39:36;;;;;;;;;7.00;7.00;;;;;23.85;54.69;101767.13;4942646;28;44867;-89
2022/07/18 01:42:05;;;;;;;;;4.25;4.25;;;;;23.88;50.97;101782.22;4946427;28;45218;-91
2022/07/18 01:44:31;;;;;;;;;6.20;6.20;;;;;23.87;52.55;101775.94;4945466;28;44727;-89
2022/07/18 01:46:57;;;;;;;;;4.80;4.80;;;;;23.87;53.26;101769.66;4944295;28;44595;-89
2022/07/18 01:49:23;;;;;;;;;4.75;4.75;;;;;23.88;50.38;101782.22;4943430;28;44902;-90
2022/07/18 01:51:52;;;;;;;;;3.00;3.00;;;;;23.88;50.31;101776.78;4945165;28;45499;-90
2022/07/18 01:54:25;;;;;;;;;3.40;3.40;;;;;23.89;48.82;101770.38;4943137;28;44745;-89
2022/07/18 01:56:51;;;;;;;;;5.00;5.00;;;;;23.92;50.10;101778.16;4944688;28;44772;-89
2022/07/18 01:59:17;;;;;;;;;4.50;4.50;;;;;23.91;52.08;101771.03;4942929;28;44903;-89
2022/07/18 02:01:43;;;;;;;;;5.00;3.50;;;;;23.84;52.43;101768.16;4932904;28;45367;-89
2022/07/18 02:04:09;;;;;;;;;7.00;4.00;;;;;23.78;54.17;101756.06;4933205;28;44676;-90
2022/07/18 02:06:34;;;;;;;;;5.25;5.25;;;;;23.75;54.78;101755.56;4933582;28;45197;-89
2022/07/18 02:08:59;;;;;;;;;6.50;6.00;;;;;23.67;55.35;101755.53;4930044;28;44895;-90
2022/07/18 02:11:25;;;;;;;;;4.00;4.00;;;;;23.60;57.62;101747.16;4929561;28;45141;-90
2022/07/18 02:13:50;;;;;;;;;4.75;4.75;;;;;23.52;59.62;101745.25;4932590;28;44762;-89
2022/07/18 02:16:16;;;;;;;;;6.25;5.75;;;;;23.44;59.29;101741.66;4931869;28;45257;-90
2022/07/18 02:18:42;;;;;;;;;6.00;5.00;;;;;23.36;60.10;101728.91;4928217;28;44883;-90
2022/07/18 02:21:09;;;;;;;;;5.50;5.50;;;;;23.30;62.44;101735.81;4926018;28;46791;-90
2022/07/18 02:23:35;;;;;;;;;4.60;4.60;;;;;23.25;61.04;101731.88;4926213;28;44779;-89
2022/07/18 02:26:01;;;;;;;;;6.00;6.00;;;;;23.21;62.74;101738.63;4926786;28;44741;-90
2022/07/18 02:28:27;;;;;;;;;6.00;4.75;;;;;23.17;62.39;101737.28;4926181;28;44823;-89
2022/07/18 02:30:52;;;;;;;;;5.75;5.00;;;;;23.12;62.89;101735.06;4926423;28;45188;-89
2022/07/18 02:33:18;;;;;;;;;5.25;5.25;;;;;23.07;62.73;101746.38;4931763;28;45434;-90
2022/07/18 02:35:44;;;;;;;;;7.00;4.00;;;;;23.05;62.11;101751.09;4934403;28;44756;-90
2022/07/18 02:38:09;;;;;;;;;5.00;5.00;;;;;23.00;62.12;101750.72;4936252;28;44911;-88
2022/07/18 02:40:35;;;;;;;;;5.75;4.50;;;;;22.98;60.99;101757.31;4936555;28;45292;-90
2022/07/18 02:43:01;;;;;;;;;6.00;5.25;;;;;22.93;61.29;101744.25;4931499;28;44705;-90
2022/07/18 02:45:26;;;;;;;;;7.25;5.00;;;;;22.93;61.09;101748.81;4933245;28;44721;-90
2022/07/18 02:47:52;;;;;;;;;5.00;5.00;;;;;22.89;62.01;101740.16;4932038;28;44925;-90
2022/07/18 02:50:18;;;;;;;;;2.75;1.00;;;;;22.88;62.05;101740.28;4930198;28;45457;-89
2022/07/18 02:52:44;;;;;;;;;6.25;4.75;;;;;22.83;61.80;101743.47;4930384;28;44631;-90
2022/07/18 02:55:11;;;;;;;;;7.00;4.50;;;;;22.83;62.24;101743.47;4931498;28;45235;-89
2022/07/18 02:57:36;;;;;;;;;3.25;3.25;;;;;22.78;60.75;101749.34;4928451;28;44744;-90
2022/07/18 03:00:05;;;;;;;;;5.00;5.00;;;;;22.81;63.28;101753.59;4925023;28;45052;-90
2022/07/18 03:02:30;;;;;;;;;6.80;5.20;;;;;22.79;63.42;101740.22;4927441;28;44800;-90
2022/07/18 03:04:56;;;;;;;;;5.00;5.00;;;;;22.82;61.13;101760.72;4927534;28;44736;-89
2022/07/18 03:07:21;;;;;;;;;5.50;4.00;;;;;22.83;60.35;101757.88;4926774;28;45154;-89
2022/07/18 03:09:47;;;;;;;;;5.00;4.25;;;;;22.84;61.98;101764.13;4928793;28;45204;-90
2022/07/18 03:12:12;;;;;;;;;4.00;4.00;;;;;22.89;62.02;101761.81;4928238;28;44639;-90
2022/07/18 03:14:38;;;;;;;;;4.25;4.25;;;;;22.91;64.35;101751.66;4927989;28;45431;-89
2022/07/18 03:17:04;;;;;;;;;8.25;5.00;;;;;22.90;63.16;101749.97;4930776;28;44837;-90
2022/07/18 03:19:29;;;;;;;;;5.00;5.00;;;;;22.86;65.23;101747.69;4941469;28;46607;-88
2022/07/18 03:21:56;;;;;;;;;5.75;4.50;;;;;22.81;62.23;101753.59;4928122;28;45263;-90
2022/07/18 03:24:22;;;;;;;;;5.80;4.60;;;;;22.76;63.53;101750.50;4925767;28;44766;-90
2022/07/18 03:26:47;;;;;;;;;3.50;3.25;;;;;22.73;63.47;101742.72;4927709;28;45439;-89
2022/07/18 03:29:13;;;;;;;;;6.00;3.00;;;;;22.70;63.59;101748.44;4925803;28;45398;-89
2022/07/18 03:31:39;;;;;;;;;4.75;4.75;;;;;22.66;64.05;101747.03;4930352;28;44833;-88
2022/07/18 03:34:04;;;;;;;;;4.60;4.60;;;;;22.60;63.86;101740.41;4931259;28;44744;-88
2022/07/18 03:36:30;;;;;;;;;2.50;2.00;;;;;22.57;65.12;101741.56;4928940;28;45256;-90
2022/07/18 03:38:55;;;;;;;;;6.00;4.00;;;;;22.51;65.76;101731.34;4933596;28;45274;-88
2022/07/18 03:41:21;;;;;;;;;7.25;4.75;;;;;22.47;67.68;101737.22;4943065;28;44736;-87
2022/07/18 03:43:46;;;;;;;;;4.00;3.25;;;;;22.42;68.07;101726.88;4941028;28;44747;-89
2022/07/18 03:46:12;;;;;;;;;4.00;4.00;;;;;22.38;68.49;101728.19;4928766;28;45233;-90
2022/07/18 03:48:37;;;;;;;;;3.75;3.75;;;;;22.29;68.57;101721.00;4926173;28;45188;-89
2022/07/18 03:51:04;;;;;;;;;5.00;4.75;;;;;22.26;69.99;101721.31;4926434;28;44747;-90
2022/07/18 03:53:31;;;;;;;;;4.00;3.40;;;;;22.22;69.25;101719.91;4925131;28;44642;-89
2022/07/18 03:55:57;;;;;;;;;4.40;4.40;;;;;22.18;69.54;101722.06;4926182;28;44902;-89
2022/07/18 03:58:22;;;;;;;;;4.00;4.00;;;;;22.18;70.81;101723.94;4929820;28;45454;-89
2022/07/18 04:00:48;;;;;;;;;5.50;4.25;;;;;22.15;71.89;101724.25;4926735;28;44810;-89
2022/07/18 04:03:16;;;;;;;;;5.75;5.75;;;;;22.10;72.95;101726.53;4925849;28;44705;-89
2022/07/18 04:05:41;;;;;;;;;7.75;5.75;;;;;22.05;73.12;101729.72;4926111;28;44641;-89
2022/07/18 04:08:07;;;;;;;;;5.75;4.00;;;;;22.02;72.13;101725.44;4925036;28;45327;-90
2022/07/18 04:10:32;;;;;;;;;3.75;3.75;;;;;;;;4926033;28;45369;-90
2022/07/18 04:12:58;;;;;;;;;4.25;3.75;;;;;22.01;72.73;101739.13;4928054;28;45181;-90
2022/07/18 04:15:25;;;;;;;;;3.75;3.75;;;;;21.98;72.96;101726.75;4929443;28;44829;-90
2022/07/18 04:17:51;;;;;;;;;4.50;4.50;;;;;21.93;73.22;101726.34;4924236;28;45175;-88
2022/07/18 04:20:18;;;;;;;;;5.00;3.80;;;;;21.96;69.79;101736.88;4927010;28;44779;-89
2022/07/18 04:22:50;;;;;;;;;9.40;5.00;;;;;;;;4925975;28;44770;-89
2022/07/18 04:25:16;;;;;;;;;4.00;3.00;;;;;22.05;67.42;101754.06;4928892;28;45495;-90
2022/07/18 04:27:41;;;;;;;;;4.40;3.40;;;;;22.12;65.63;101748.91;4929547;28;46707;-91
2022/07/18 04:30:07;;;;;;;;;3.75;3.75;;;;;22.23;62.71;101751.38;4924947;28;45271;-89
2022/07/18 04:32:33;;;;;;;;;5.00;3.60;;;;;22.30;64.15;101747.09;4926933;28;45164;-89
2022/07/18 04:34:58;;;;;;;;;3.25;2.25;;;;;22.39;62.67;101756.13;4929682;28;44733;-89
2022/07/18 04:37:24;;;;;;;;;5.25;4.75;;;;;22.48;64.36;101749.75;4929479;28;45173;-90
2022/07/18 04:39:49;;;;;;;;;3.00;3.00;;;;;22.55;67.99;101745.44;4927327;28;44702;-89
2022/07/18 04:42:15;;;;;;;;;3.75;3.25;;;;;22.62;69.12;101729.41;4932007;28;44797;-90
2022/07/18 04:44:41;;;;;;;;;3.25;2.00;;;;;22.69;69.52;101720.50;4932610;28;44828;-88
2022/07/18 04:47:06;;;;;;;;;4.00;4.00;;;;;22.75;69.53;101717.16;4929397;28;45200;-90
2022/07/18 04:49:32;;;;;;;;;5.75;4.00;;;;;22.82;69.81;101712.81;4926573;28;44565;-90
2022/07/18 04:51:57;;;;;;;;;8.25;3.00;;;;;22.89;70.00;101704.06;4927426;28;45219;-90
2022/07/18 04:54:23;;;;;;;;;4.00;4.00;;;;;22.98;70.06;101703.97;4927865;28;44814;-90
2022/07/18 04:56:49;;;;;;;;;6.00;4.25;;;;;23.06;69.60;101690.47;4929224;28;45560;-89
2022/07/18 04:59:15;;;;;;;;;2.80;2.80;;;;;23.18;70.14;101703.72;4928184;28;44743;-89
2022/07/18 05:01:40;;;;;;;;;3.25;3.00;;;;;23.29;69.24;101703.44;4928797;28;45344;-90
2022/07/18 05:04:06;;;;;;;;;4.50;4.00;;;;;23.44;67.63;101704.53;4928072;28;44745;-89
2022/07/18 05:06:52;;;;;;;;;4.00;4.00;;;;;23.56;67.50;101697.81;4940827;28;46542;-95
2022/07/18 05:09:23;;;;;;;;;3.60;3.40;;;;;23.75;67.24;101690.44;4909857;28;44799;-95
2022/07/18 05:12:00;;;;;;;;;3.20;3.20;;;;;23.92;69.27;101688.59;4927584;28;44651;-93
2022/07/18 05:14:44;;;;;;;;;4.80;4.80;;;;;24.02;69.92;101679.28;4944764;28;44733;-92
2022/07/18 05:20:42;;;;;;;;;4.60;4.60;;;;;24.47;69.85;101682.56;4939913;28;44538;-96
2022/07/18 05:23:30;;;;;;;;;2.60;2.60;;;;;24.59;69.79;101671.16;4936523;28;44626;-95
2022/07/18 05:25:59;;;;;;;;;4.40;4.40;;;;;24.73;70.05;101668.78;4939865;28;44872;-94
2022/07/18 05:28:29;;;;;;;;;5.00;5.00;;;;;24.87;69.64;101671.63;4940276;28;45122;-95
2022/07/18 05:31:08;;;;;;;;;4.80;4.40;;;;;24.98;68.10;101661.41;4938877;28;44655;-95
2022/07/18 05:33:34;;;;;;;;;5.80;4.60;;;;;25.09;65.88;101655.59;4933602;28;44748;-92
2022/07/18 05:36:01;;;;;;;;;7.25;5.75;;;;;25.20;62.89;101651.69;4940604;28;44924;-94
2022/07/18 05:38:26;;;;;;;;;8.20;4.80;;;;;25.31;60.48;101654.84;4934922;28;45179;-93
2022/07/18 05:40:52;;;;;;;;;3.75;3.75;;;;;25.46;60.00;101663.09;4928303;28;44622;-93
2022/07/18 05:43:17;;;;;;;;;5.33;3.00;;;;;25.60;56.86;101683.28;4931881;28;44745;-94
2022/07/18 05:45:43;;;;;;;;;5.00;5.00;;;;;25.73;56.42;101697.16;4938968;28;44815;-95
2022/07/18 05:48:14;;;;;;;;;4.20;4.20;;;;;25.69;53.64;101722.19;4940917;28;45164;-95
2022/07/18 05:50:44;;;;;;;;;4.80;2.00;;;;;25.63;52.16;101723.75;4941820;28;44651;-95
2022/07/18 05:53:13;;;;;;;;;2.20;2.00;;;;;25.66;52.16;101722.53;4939232;28;44729;-95
2022/07/18 05:55:42;;;;;;;;;2.20;2.20;;;;;25.89;52.19;101721.59;4940204;28;45042;-95
2022/07/18 05:58:09;;;;;;;;;5.40;4.00;;;;;26.16;52.23;101724.84;4938404;28;45100;-95
2022/07/18 06:00:34;;;;;;;;;3.20;3.00;;;;;26.39;52.54;101719.38;4923828;28;44583;-94
2022/07/18 06:03:09;;;;;;;;;3.00;3.00;;;;;26.67;51.62;101716.94;4943375;28;44698;-94
2022/07/18 06:05:40;;;;;;;;;5.20;3.40;;;;;26.91;52.26;101711.25;4943093;28;44780;-95
2022/07/18 06:08:27;;;;;;;;;5.40;3.20;;;;;27.12;51.60;101699.63;4938454;28;45129;-95
2022/07/18 06:11:03;;;;;;;;;4.20;2.80;;;;;27.36;50.64;101705.84;4923927;28;44605;-95
2022/07/18 06:13:34;;;;;;;;;5.20;3.80;;;;;27.55;52.47;101701.69;4937466;28;44789;-95
2022/07/18 06:16:01;;;;;;;;;4.00;4.00;;;;;27.68;50.64;101705.41;4921735;28;44875;-95
2022/07/18 06:18:28;;;;;;;;;4.60;4.60;;;;;27.86;49.83;101709.66;4922288;28;45001;-95
2022/07/18 06:21:04;;;;;;;;;4.40;4.00;;;;;27.84;52.07;101703.53;4911286;28;44598;-95
2022/07/18 06:23:31;;;;;;;;;6.00;4.60;;;;;27.84;52.10;101712.56;4940449;28;44635;-95
2022/07/18 06:26:00;;;;;;;;;4.00;4.00;;;;;27.89;50.06;101710.09;4941653;28;44895;-94
2022/07/18 06:28:30;;;;;;;;;2.80;2.00;;;;;27.92;49.79;101709.72;4927645;28;45139;-95
2022/07/18 06:33:43;;;;;;;;;4.00;4.00;;;;;28.18;48.90;101709.13;5294074;23;44938;-94
2022/07/18 06:36:11;;;;;;;;;4.00;3.60;;;;;28.29;48.14;101710.53;4924537;28;44845;-95
2022/07/18 06:39:08;;;;;;;;;4.00;4.00;;;;;28.40;48.70;101712.75;4925784;28;45021;-95
2022/07/18 06:41:37;;;;;;;;;2.80;2.80;;;;;28.54;50.62;101711.00;4945108;28;44543;-95
2022/07/18 06:44:11;;;;;;;;;4.00;4.00;;;;;28.73;46.08;101720.41;4932085;28;44654;-95
2022/07/18 06:46:39;;;;;;;;;3.60;3.60;;;;;28.81;45.80;101722.13;4909717;29;44907;-96
2022/07/18 06:49:13;;;;;;;;;7.60;4.20;;;;;29.03;44.93;101728.44;4924398;29;45182;-93
2022/07/18 06:51:44;;;;;;;;;3.60;3.00;;;;;29.22;45.93;101724.97;4913479;28;44786;-95
2022/07/18 06:54:10;;;;;;;;;3.60;3.00;;;;;29.38;45.06;101735.56;5060059;23;45803;-90
2022/07/18 06:56:36;;;;;;;;;3.00;3.00;;;;;29.54;44.22;101723.47;4899019;29;44775;-90
2022/07/18 06:59:01;;;;;;;;;7.50;4.50;;;;;29.70;45.92;101720.38;4912233;29;45195;-90
2022/07/18 07:01:27;;;;;;;;;6.75;4.75;;;;;29.75;44.18;101714.28;4909631;29;44864;-89
2022/07/18 07:03:52;;;;;;;;;2.50;2.50;;;;;29.89;43.79;101710.53;4909717;29;44770;-90
2022/07/18 07:06:18;;;;;;;;;4.00;3.00;;;;;29.98;41.94;101726.78;4910317;29;44912;-90
2022/07/18 07:08:43;;;;;;;;;5.50;3.75;;;;;30.04;42.82;101715.84;4915738;29;45239;-90
2022/07/18 07:11:09;;;;;;;;;6.00;4.50;;;;;30.23;42.70;101718.88;4913611;29;44817;-90
2022/07/18 07:13:34;;;;;;;;;6.00;4.75;;;;;30.40;41.80;101723.72;4911727;29;44742;-90
2022/07/18 07:16:00;;;;;;;;;5.50;5.50;;;;;30.54;41.23;101721.84;4911900;29;44785;-90
2022/07/18 07:18:25;;;;;;;;;7.00;5.25;;;;;30.62;41.07;101727.13;4912609;29;45245;-91
2022/07/18 07:20:50;;;;;;;;;8.50;5.75;;;;;30.75;40.81;101731.78;4912883;29;44694;-90
2022/07/18 07:23:16;;;;;;;;;9.50;8.00;;;;;30.90;40.40;101726.09;4913639;29;44914;-90
2022/07/18 07:25:42;;;;;;;;;5.00;5.00;;;;;31.01;40.51;101719.09;4911746;29;45090;-91
2022/07/18 07:28:08;;;;;;;;;6.25;5.00;;;;;31.04;39.56;101711.25;4908370;29;45239;-90
2022/07/18 07:30:34;;;;;;;;;6.00;6.00;;;;;31.13;39.90;101717.38;4905396;29;44723;-89
2022/07/18 07:33:01;;;;;;;;;5.00;4.20;;;;;31.20;37.90;101721.78;4905472;29;44809;-88
2022/07/18 07:35:27;;;;;;;;;4.40;3.40;;;;;31.23;37.85;101713.09;4889858;29;44793;-89
2022/07/18 07:37:56;;;;;;;;;6.50;5.50;;;;;31.30;37.77;101713.13;4890415;29;45487;-89
2022/07/18 07:40:26;;;;;;;;;4.60;3.20;;;;;31.32;38.21;101705.50;4889516;29;44709;-89
2022/07/18 07:43:03;;;;;;;;;3.80;3.40;;;;;31.34;37.33;101702.56;4890745;29;44698;-89
2022/07/18 07:45:29;;;;;;;;;5.40;5.00;;;;;31.35;36.47;101713.31;4893623;29;45564;-88
2022/07/18 07:47:55;;;;;;;;;4.00;4.00;;;;;31.32;36.41;101711.00;4924584;29;45028;-89
2022/07/18 07:50:20;;;;;;;;;6.25;4.25;;;;;31.29;36.37;101714.19;4924247;29;44812;-88
2022/07/18 07:52:46;;;;;;;;;5.00;3.25;;;;;31.30;37.48;101706.81;4901728;29;44662;-88
2022/07/18 07:55:11;;;;;;;;;4.50;4.50;;;;;31.31;36.93;101701.09;4913068;28;44836;-89
2022/07/18 07:57:37;;;;;;;;;4.50;4.50;;;;;31.29;37.34;101707.88;4912900;29;45083;-89
2022/07/18 08:00:08;;;;;;;;;6.50;5.25;;;;;31.26;36.17;101700.03;4912213;29;45166;-90
2022/07/18 08:02:36;;;;;;;;;3.60;3.60;;;;;31.19;36.73;101691.81;4916808;29;44770;-88
2022/07/18 08:05:03;;;;;;;;;4.40;3.80;;;;;31.19;36.85;101697.31;4920243;29;44768;-90
2022/07/18 08:07:28;;;;;;;;;5.60;4.00;;;;;31.18;36.80;101685.47;4901733;29;45145;-89
2022/07/18 08:09:54;;;;;;;;;3.00;3.00;;;;;31.12;36.96;101690.97;4896446;29;44754;-89
2022/07/18 08:12:20;;;;;;;;;7.00;5.00;;;;;31.10;36.85;101691.19;4911100;29;44663;-88
2022/07/18 08:14:46;;;;;;;;;4.00;4.00;;;;;31.13;37.05;101688.00;4894323;29;44970;-89
2022/07/18 08:17:12;;;;;;;;;5.50;4.25;;;;;31.17;36.82;101692.00;4911063;29;45259;-90
2022/07/18 08:19:38;;;;;;;;;5.40;4.20;;;;;31.23;37.25;101690.28;4896953;29;44850;-90
2022/07/18 08:22:06;;;;;;;;;4.75;4.75;;;;;31.26;37.21;101686.28;4897745;29;44701;-90
2022/07/18 08:24:31;;;;;;;;;5.00;5.00;;;;;31.28;36.72;101686.94;4917068;29;44788;-90
2022/07/18 08:26:59;;;;;;;;;7.25;5.00;;;;;31.36;37.42;101683.97;4915473;29;45048;-88
2022/07/18 08:29:25;;;;;;;;;4.40;3.40;;;;;31.44;37.23;101687.31;4912998;29;44938;-89
2022/07/18 08:31:50;;;;;;;;;6.25;6.25;;;;;31.51;37.83;101686.44;4909492;29;44854;-90
2022/07/18 08:34:16;;;;;;;;;5.75;4.50;;;;;31.62;36.89;101688.47;4894499;29;44914;-89
2022/07/18 08:36:42;;;;;;;;;5.00;5.00;;;;;31.70;36.52;101677.25;4911721;29;45232;-90
2022/07/18 08:39:08;;;;;;;;;5.20;5.20;;;;;31.66;36.97;101676.84;4893942;29;44874;-90
2022/07/18 08:41:36;;;;;;;;;9.00;5.25;;;;;31.58;36.62;101679.84;4916036;29;44805;-90
2022/07/18 08:44:02;;;;;;;;;5.80;5.80;;;;;31.60;37.86;101683.22;4900344;29;44862;-90
2022/07/18 08:46:28;;;;;;;;;6.20;4.80;;;;;31.62;37.07;101678.38;4913874;29;45004;-90
2022/07/18 08:48:55;;;;;;;;;7.00;7.00;;;;;31.71;37.01;101678.94;4912046;29;44756;-89
2022/07/18 08:51:22;;;;;;;;;5.60;5.60;;;;;31.71;37.27;101676.19;4911761;29;44769;-89
2022/07/18 08:53:50;;;;;;;;;4.60;4.60;;;;;31.82;38.39;101685.69;4913015;29;44906;-91
2022/07/18 08:56:15;;;;;;;;;4.00;3.80;;;;;31.97;37.28;101678.81;4913695;28;45179;-89
2022/07/18 08:58:41;;;;;;;;;7.75;5.00;;;;;32.02;36.95;101677.31;4929738;28;44607;-90
2022/07/18 09:01:06;;;;;;;;;5.50;5.50;;;;;32.05;36.67;101677.69;4930068;28;44781;-91
2022/07/18 09:03:32;;;;;;;;;6.50;6.50;;;;;32.10;37.19;101680.59;4928105;28;44954;-91
2022/07/18 09:06:11;;;;;;;;;4.50;4.25;;;;;32.23;37.48;101682.44;4928374;28;45121;-89
2022/07/18 09:08:39;;;;;;;;;7.60;5.40;;;;;32.32;36.58;101681.09;4929453;28;44720;-90
2022/07/18 09:11:10;;;;;;;;;6.40;6.40;;;;;32.34;36.15;101678.09;4928353;28;45511;-89
2022/07/18 09:13:42;;;;;;;;;4.20;4.20;;;;;32.44;36.69;101675.72;4913309;28;44835;-89
2022/07/18 09:16:09;;;;;;;;;5.80;5.80;;;;;32.53;36.14;101684.53;4930328;28;45603;-89
2022/07/18 09:18:46;;;;;;;;;6.20;6.20;;;;;32.62;35.66;101677.69;4914099;28;45239;-90
2022/07/18 09:21:15;;;;;;;;;5.60;5.60;;;;;32.78;36.41;101685.34;4932349;28;44755;-89
2022/07/18 09:23:43;;;;;;;;;6.80;5.20;;;;;32.88;36.09;101682.94;4917006;28;44922;-90
2022/07/18 09:26:10;;;;;;;;;7.00;7.00;;;;;33.03;35.80;101687.28;4920703;28;45323;-90
2022/07/18 09:28:50;;;;;;;;;6.40;6.40;;;;;33.12;36.33;101677.59;4920409;28;44780;-90
2022/07/18 09:31:25;;;;;;;;;7.00;4.60;;;;;33.19;35.54;101679.22;4931572;28;44667;-90
2022/07/18 09:34:02;;;;;;;;;7.80;6.00;;;;;33.28;35.16;101677.00;4933001;28;44813;-90
2022/07/18 09:36:28;;;;;;;;;7.80;5.00;;;;;33.32;35.47;101669.97;4928894;28;45280;-89
2022/07/18 09:38:54;;;;;;;;;6.80;6.80;;;;;33.39;34.66;101680.91;4930901;28;44741;-90
2022/07/18 09:45:17;;;;;;;;;6.80;5.80;;;;;33.40;34.27;101679.81;4940471;28;44776;-94
2022/07/18 09:57:44;;;;;;;;;5.80;5.80;;;;;33.84;33.10;101672.25;5626696;23;45108;-90
2022/07/18 10:00:10;;;;;;;;;8.50;6.75;;;;;33.94;33.93;101676.19;4927966;28;46540;-89
2022/07/18 10:02:36;;;;;;;;;5.25;5.25;;;;;34.10;33.07;101677.41;4946938;28;44727;-89
2022/07/18 10:05:01;;;;;;;;;10.75;7.00;;;;;34.11;32.54;101672.72;4935455;28;44759;-89
2022/07/18 10:07:28;;;;;;;;;2.50;2.50;;;;;34.04;31.98;101681.13;4919641;28;44889;-89
2022/07/18 10:09:54;;;;;;;;;6.20;6.20;;;;;33.94;31.96;101678.03;4931698;28;45097;-88
2022/07/18 10:12:22;;;;;;;;;3.00;3.00;;;;;33.92;31.07;101667.25;4928294;28;44792;-88
2022/07/18 10:14:49;;;;;;;;;7.80;6.60;;;;;34.06;31.29;101678.94;4927789;28;44823;-89
2022/07/18 10:17:14;;;;;;;;;9.00;8.00;;;;;34.21;31.95;101668.31;4912954;28;44844;-90
2022/07/18 10:19:40;;;;;;;;;8.25;7.00;;;;;34.35;31.53;101666.16;4911094;28;45519;-90
2022/07/18 10:22:07;;;;;;;;;5.50;5.50;;;;;34.38;31.46;101662.94;4929335;28;45183;-90
2022/07/18 10:24:36;;;;;;;;;4.80;4.80;;;;;34.49;31.28;101664.06;4926106;28;44773;-87
2022/07/18 10:27:13;;;;;;;;;4.20;4.20;;;;;34.62;30.90;101655.53;4910690;28;44893;-88
2022/07/18 10:29:39;;;;;;;;;6.60;6.60;;;;;34.68;30.74;101664.78;4937298;28;45314;-86
2022/07/18 10:32:07;;;;;;;;;6.25;3.50;;;;;34.74;30.03;101650.84;4937296;28;44772;-87
2022/07/18 10:34:36;;;;;;;;;6.20;5.60;;;;;34.80;30.49;101659.25;4936703;28;44745;-86
2022/07/18 10:37:06;;;;;;;;;5.80;5.80;;;;;34.90;30.42;101649.25;4935456;28;44836;-85
2022/07/18 10:39:50;;;;;;;;;5.60;5.20;;;;;34.99;31.11;101647.00;4927990;28;45085;-86
2022/07/18 10:42:18;;;;;;;;;5.40;4.60;;;;;35.12;30.59;101649.50;4915077;28;44627;-88
2022/07/18 10:44:44;;;;;;;;;6.20;6.20;;;;;35.21;31.12;101645.28;4927638;28;44817;-87
2022/07/18 10:47:17;;;;;;;;;5.75;5.75;;;;;35.30;30.33;101642.97;4927478;28;45235;-87
2022/07/18 10:49:56;;;;;;;;;5.20;3.60;;;;;35.43;29.54;101642.66;4927099;28;45105;-87
2022/07/18 10:52:24;;;;;;;;;5.80;4.80;;;;;35.53;29.34;101647.56;4927793;28;44706;-87
2022/07/18 10:55:42;;;;;;;;;5.20;5.20;;;;;35.53;29.68;101645.66;4930581;28;44684;-92
2022/07/18 11:09:02;;;;;;;;;6.40;5.00;;;;;35.71;27.85;101641.84;4830548;29;44867;-92
2022/07/18 11:11:57;;;;;;;;;7.80;6.00;;;;;35.86;27.34;101634.91;4815606;29;44906;-92
2022/07/18 11:15:27;;;;;;;;;5.60;4.60;;;;;35.99;27.73;101641.00;4826438;29;45401;-92
2022/07/18 11:17:55;;;;;;;;;5.60;5.60;;;;;36.09;28.12;101632.03;4792591;29;45339;-86
2022/07/18 11:20:27;;;;;;;;;4.60;4.00;;;;;36.12;27.05;101641.75;4815987;29;44818;-87
2022/07/18 11:22:52;;;;;;;;;5.20;5.20;;;;;36.15;29.08;101631.03;4821656;29;45299;-87
2022/07/18 11:25:20;;;;;;;;;5.75;5.00;;;;;36.25;28.01;101630.34;4818939;29;45263;-87
2022/07/18 11:27:45;;;;;;;;;3.40;3.40;;;;;36.20;25.62;101621.97;4820318;29;44671;-87
2022/07/18 11:30:21;;;;;;;;;10.60;7.80;;;;;36.12;25.33;101626.00;4871118;29;44637;-87
2022/07/18 11:32:47;;;;;;;;;4.40;4.40;;;;;36.15;25.84;101619.94;4919681;28;44843;-89
2022/07/18 11:35:13;;;;;;;;;9.50;7.50;;;;;36.08;25.35;101619.28;4932134;28;44930;-89
2022/07/18 11:37:46;;;;;;;;;4.20;4.20;;;;;36.11;24.81;101621.53;4931035;28;44722;-88
2022/07/18 11:40:13;;;;;;;;;4.80;4.80;;;;;36.18;25.03;101621.38;4927680;28;45215;-89
2022/07/18 11:42:40;;;;;;;;;3.20;3.20;;;;;36.36;24.54;101626.63;4908888;28;44819;-87
2022/07/18 11:45:09;;;;;;;;;6.60;5.40;;;;;36.45;24.35;101624.31;4925681;28;45400;-87
2022/07/18 11:47:53;;;;;;;;;2.80;2.80;;;;;36.49;23.92;101620.78;4928093;28;45392;-89
2022/07/18 11:50:34;;;;;;;;;4.00;4.00;;;;;36.58;23.77;101617.59;4925953;28;44770;-89
2022/07/18 11:55:37;;;;;;;;;3.00;3.00;;;;;36.91;23.51;101622.25;5230112;23;45124;-90
2022/07/18 11:58:14;;;;;;;;;8.60;8.60;;;;;37.08;23.19;101617.44;4925126;28;44848;-90
2022/07/18 12:00:43;;;;;;;;;4.60;2.80;;;;;37.13;23.62;101611.13;4930148;28;44758;-90
2022/07/18 12:03:09;;;;;;;;;8.60;7.60;;;;;37.02;21.85;101616.56;4933207;28;44864;-90
2022/07/18 12:05:40;;;;;;;;;4.00;4.00;;;;;37.15;22.01;101618.09;4935818;28;45009;-88
2022/07/18 12:08:28;;;;;;;;;3.40;3.40;;;;;37.31;22.39;101613.56;4928187;28;44713;-88